.
WxDataArchive / Data Records for 2015-10-15
2015-10-14 October 2015 2015-10-16

Data Records for Thursday, 15 October 2015

Time	Temp	Chill	HIndex	Humid	Dewpt	 Wind 	HiWind	WindDir	Rain 	Barom
-----	----	-----	------	-----	-----	------	------	-------	-----	-----
00:00	41.1	41.1	41.1	87	37.5	0	0	---	0.00	30.010 
00:05	41.1	41.1	41.1	87	37.5	0	0	---	0.00	30.010 
00:10	40.9	40.9	40.9	87	37.3	0	0	---	0.00	30.010 
00:15	40.8	40.8	40.8	87	37.2	0	0	---	0.00	30.010 
00:20	40.8	40.8	40.8	88	37.5	0	0	---	0.00	30.010 
00:25	40.6	40.6	40.6	88	37.3	0	0	---	0.00	30.010 
00:30	40.6	40.6	40.6	88	37.3	0	0	---	0.00	30.011 
00:35	40.5	40.5	40.5	88	37.2	0	0	---	0.00	30.011 
00:40	40.3	40.3	40.3	88	37.0	0	0	---	0.00	30.011 
00:45	40.3	40.3	40.3	88	37.0	0	0	---	0.00	30.010 
00:50	40.2	40.2	40.2	88	36.9	0	0	---	0.00	30.010 
00:55	40.1	40.1	40.1	88	36.8	0	0	---	0.00	30.010 
01:00	40.1	40.1	40.1	89	37.1	0	0	---	0.00	30.010 
01:05	39.9	39.9	39.9	89	36.9	0	0	---	0.00	30.010 
01:10	39.9	39.9	39.9	89	36.9	0	0	---	0.00	30.010 
01:15	39.8	39.8	39.8	89	36.8	0	0	---	0.00	30.008 
01:20	39.8	39.8	39.8	89	36.8	0	0	---	0.00	30.008 
01:25	39.8	39.8	39.8	89	36.8	0	0	---	0.00	30.008 
01:30	39.6	39.6	39.6	90	36.9	0	0	---	0.00	30.011 
01:35	39.6	39.6	39.6	90	36.9	0	0	---	0.00	30.011 
01:40	39.6	39.6	39.6	90	36.9	0	0	---	0.00	30.011 
01:45	39.8	39.8	39.8	90	37.1	0	0	---	0.00	30.009 
01:50	39.9	39.9	39.9	90	37.2	0	0	---	0.00	30.009 
01:55	40.1	40.1	40.1	91	37.7	0	0	---	0.00	30.009 
02:00	40.2	40.2	40.2	91	37.8	0	0	---	0.00	30.007 
02:05	40.3	40.3	40.3	91	37.9	0	0	---	0.00	30.007 
02:10	40.5	40.5	40.5	91	38.1	0	0	---	0.00	30.007 
02:15	40.6	40.6	40.6	91	38.2	0	0	---	0.00	30.006 
02:20	40.8	40.8	40.8	91	38.4	0	0	---	0.00	30.006 
02:25	41.1	41.1	41.1	91	38.7	0	0	---	0.00	30.006 
02:30	41.2	41.2	41.2	91	38.8	0	0	---	0.00	30.006 
02:35	41.3	41.3	41.3	91	38.9	0	0	---	0.00	30.006 
02:40	41.3	41.3	41.3	91	38.9	0	0	---	0.00	30.006 
02:45	41.5	41.5	41.5	90	38.8	0	0	---	0.00	30.006 
02:50	41.5	41.5	41.5	90	38.8	0	0	---	0.00	30.006 
02:55	41.5	41.5	41.5	90	38.8	0	0	---	0.00	30.006 
03:00	41.3	41.3	41.3	90	38.6	0	0	---	0.00	30.006 
03:05	41.3	41.3	41.3	90	38.6	0	0	---	0.00	30.006 
03:10	41.3	41.3	41.3	89	38.3	0	0	---	0.00	30.006 
03:15	41.3	41.3	41.3	89	38.3	0	0	---	0.00	30.007 
03:20	41.3	41.3	41.3	89	38.3	0	0	---	0.00	30.007 
03:25	41.5	41.5	41.5	89	38.5	0	0	---	0.00	30.007 
03:30	41.6	41.6	41.6	89	38.6	0	0	---	0.00	30.007 
03:35	41.6	41.6	41.6	89	38.6	0	0	---	0.00	30.007 
03:40	41.8	41.8	41.8	89	38.8	0	0	---	0.00	30.007 
03:45	42.1	42.1	42.1	89	39.1	0	0	---	0.00	30.006 
03:50	42.2	42.2	42.2	88	38.9	0	0	---	0.00	30.006 
03:55	42.5	42.5	42.5	88	39.2	0	0	---	0.00	30.006 
04:00	42.6	42.6	42.6	88	39.3	0	1	292	0.00	30.003 
04:05	42.9	42.9	42.9	87	39.3	0	0	---	0.00	30.003 
04:10	43.1	43.1	43.1	86	39.2	0	0	---	0.00	30.003 
04:15	43.2	43.2	43.2	86	39.3	0	0	---	0.00	30.002 
04:20	43.3	43.3	43.3	85	39.1	0	0	---	0.00	30.002 
04:25	43.3	43.3	43.3	85	39.1	0	0	---	0.00	30.002 
04:30	43.5	43.5	43.5	84	39.0	0	0	---	0.00	29.996 
04:35	43.6	43.6	43.6	84	39.1	0	0	---	0.00	29.996 
04:40	43.5	43.5	43.5	83	38.7	0	0	---	0.00	29.996 
04:45	43.5	43.5	43.5	83	38.7	0	0	---	0.00	29.994 
04:50	43.3	43.3	43.3	83	38.5	0	0	---	0.00	29.994 
04:55	43.2	43.2	43.2	83	38.4	0	0	---	0.00	29.994 
05:00	43.2	43.2	43.2	83	38.4	0	1	292	0.00	30.001 
05:05	43.1	43.1	43.1	82	38.0	0	0	---	0.00	30.001 
05:10	43.1	43.1	43.1	82	38.0	0	0	---	0.00	30.001 
05:15	43.2	43.2	43.2	82	38.1	0	0	---	0.00	30.003 
05:20	43.2	43.2	43.2	82	38.1	0	0	---	0.00	30.003 
05:25	43.2	43.2	43.2	82	38.1	0	0	---	0.00	30.003 
05:30	43.1	43.1	43.1	81	37.7	0	0	---	0.00	30.002 
05:35	43.1	43.1	43.1	81	37.7	0	0	---	0.00	30.002 
05:40	43.1	43.1	43.1	81	37.7	0	0	---	0.00	30.002 
05:45	42.9	42.9	42.9	81	37.5	0	0	---	0.00	30.002 
05:50	42.9	42.9	42.9	81	37.5	0	0	---	0.00	30.002 
05:55	42.9	42.9	42.9	81	37.5	0	0	---	0.00	30.002 
06:00	42.8	42.8	42.8	81	37.4	0	0	---	0.00	30.005 
06:05	42.8	42.8	42.8	81	37.4	0	0	---	0.00	30.005 
06:10	42.8	42.8	42.8	81	37.4	0	0	---	0.00	30.005 
06:15	42.8	42.8	42.8	81	37.4	0	0	---	0.00	30.006 
06:20	42.6	42.6	42.6	81	37.2	0	0	---	0.00	30.006 
06:25	42.6	42.6	42.6	81	37.2	0	0	---	0.00	30.006 
06:30	42.6	42.6	42.6	81	37.2	0	0	---	0.00	30.004 
06:35	42.6	42.6	42.6	81	37.2	0	0	---	0.00	30.004 
06:40	42.6	42.6	42.6	81	37.2	0	0	---	0.00	30.004 
06:45	42.6	42.6	42.6	81	37.2	0	0	---	0.00	30.005 
06:50	42.6	42.6	42.6	81	37.2	0	0	---	0.00	30.005 
06:55	42.5	42.5	42.5	81	37.1	0	0	---	0.00	30.005 
07:00	42.5	42.5	42.5	81	37.1	0	1	292	0.00	30.007 
07:05	42.5	42.5	42.5	81	37.1	0	0	---	0.00	30.007 
07:10	42.5	42.5	42.5	81	37.1	0	0	---	0.00	30.007 
07:15	42.3	42.3	42.3	81	36.9	0	0	---	0.00	30.013 
07:20	42.3	42.3	42.3	81	36.9	0	0	---	0.00	30.013 
07:25	42.3	42.3	42.3	81	36.9	0	0	---	0.00	30.013 
07:30	42.3	42.3	42.3	81	36.9	0	0	---	0.00	30.013 
07:35	42.3	42.3	42.3	81	36.9	0	0	---	0.00	30.013 
07:40	42.3	42.3	42.3	80	36.6	0	0	---	0.00	30.013 
07:45	42.3	42.3	42.3	80	36.6	0	0	---	0.00	30.016 
07:50	42.3	42.3	42.3	80	36.6	0	0	---	0.00	30.016 
07:55	42.3	42.3	42.3	80	36.6	0	0	---	0.00	30.016 
08:00	42.3	42.3	42.3	80	36.6	0	0	---	0.00	30.014 
08:05	42.3	42.3	42.3	80	36.6	0	0	---	0.00	30.014 
08:10	42.5	42.5	42.5	80	36.8	0	0	---	0.00	30.014 
08:15	42.6	42.6	42.6	80	36.9	0	0	---	0.00	30.016 
08:20	42.8	42.8	42.8	79	36.7	0	0	---	0.00	30.016 
08:25	43.2	43.2	43.2	79	37.1	0	1	292	0.00	30.016 
08:30	43.5	43.5	43.5	78	37.1	0	1	292	0.00	30.013 
08:35	43.8	43.8	43.8	77	37.1	0	0	---	0.00	30.013 
08:40	44.1	44.1	44.1	77	37.4	0	0	---	0.00	30.013 
08:45	44.3	44.3	44.3	76	37.2	0	1	292	0.00	30.014 
08:50	44.6	44.6	44.6	76	37.5	0	0	---	0.00	30.014 
08:55	44.9	44.9	44.9	76	37.8	0	0	---	0.00	30.014 
09:00	45.1	45.1	45.1	75	37.7	0	0	---	0.00	30.012 
09:05	45.5	45.5	45.5	75	38.0	0	0	---	0.00	30.012 
09:10	46.0	46.0	46.0	74	38.2	0	0	---	0.00	30.012 
09:15	46.5	46.5	46.5	74	38.7	0	2	315	0.00	30.013 
09:20	47.1	47.1	47.1	73	38.9	0	0	---	0.00	30.013 
09:25	47.6	47.6	47.6	71	38.7	0	0	---	0.00	30.013 
09:30	48.3	48.3	48.3	69	38.6	0	1	315	0.00	30.014 
09:35	49.2	49.2	49.2	66	38.3	0	2	315	0.00	30.014 
09:40	49.8	49.8	49.8	65	38.5	0	2	292	0.00	30.014 
09:45	50.4	50.4	50.4	63	38.3	0	1	292	0.00	30.021 
09:50	51.0	51.0	51.0	62	38.4	0	1	292	0.00	30.021 
09:55	51.6	51.6	51.6	61	38.6	0	1	292	0.00	30.021 
10:00	52.3	52.3	52.3	60	38.8	1	3	292	0.00	30.023 
10:05	52.9	52.9	52.9	59	39.0	0	2	292	0.00	30.023 
10:10	53.5	53.5	53.5	57	38.6	1	4	292	0.00	30.023 
10:15	54.1	54.1	54.1	55	38.3	0	2	292	0.00	30.024 
10:20	54.7	54.7	54.7	54	38.4	1	4	292	0.00	30.024 
10:25	55.1	55.1	55.1	53	38.3	0	2	292	0.00	30.024 
10:30	55.7	55.7	55.7	52	38.3	0	2	292	0.00	30.022 
10:35	56.3	56.3	56.3	53	39.4	0	2	292	0.00	30.022 
10:40	56.9	56.9	56.9	51	39.0	1	4	292	0.00	30.022 
10:45	57.5	57.5	57.5	50	39.0	0	2	292	0.00	30.011 
10:50	58.1	58.1	58.1	49	39.0	0	2	292	0.00	30.011 
10:55	58.6	58.6	58.6	47	38.4	1	4	292	0.00	30.011 
11:00	58.9	58.9	58.9	48	39.2	1	4	292	0.00	30.014 
11:05	59.3	59.3	59.3	47	39.1	0	2	292	0.00	30.014 
11:10	59.9	59.9	59.9	46	39.1	0	3	292	0.00	30.014 
11:15	60.2	60.2	60.2	46	39.3	1	4	292	0.00	30.017 
11:20	60.4	60.4	60.4	45	39.0	1	3	292	0.00	30.017 
11:25	60.5	60.5	60.5	46	39.6	1	4	292	0.00	30.017 
11:30	61.0	61.0	61.0	44	38.9	0	3	248	0.00	30.012 
11:35	61.5	61.5	61.5	43	38.8	0	2	248	0.00	30.012 
11:40	61.8	61.8	61.8	44	39.7	1	6	270	0.00	30.012 
11:45	62.4	62.4	62.4	43	39.6	1	4	292	0.00	30.005 
11:50	62.9	62.9	62.9	41	38.8	1	2	292	0.00	30.005 
11:55	63.2	63.2	63.2	41	39.1	1	4	270	0.00	30.005 
12:00	63.5	63.5	63.5	39	38.1	1	3	225	0.00	30.000 
12:05	63.9	63.9	63.9	40	39.1	1	3	0	0.00	30.000 
12:10	64.0	64.0	64.0	39	38.5	1	4	225	0.00	30.000 
12:15	64.3	64.3	64.3	39	38.8	1	3	270	0.00	29.990 
12:20	64.5	64.5	64.5	37	37.6	1	5	338	0.00	29.990 
12:25	64.7	64.7	64.7	37	37.8	1	3	270	0.00	29.990 
12:30	65.2	65.2	65.2	37	38.3	1	4	270	0.00	29.987 
12:35	65.5	65.5	65.5	35	37.1	1	2	270	0.00	29.987 
12:40	65.6	65.6	65.6	35	37.2	1	4	248	0.00	29.987 
12:45	66.0	66.0	66.0	36	38.3	0	1	248	0.00	29.984 
12:50	66.1	66.1	66.1	36	38.4	1	4	248	0.00	29.984 
12:55	66.0	66.0	66.0	35	37.6	1	3	248	0.00	29.984 
13:00	66.1	66.1	66.1	35	37.6	1	2	248	0.00	29.976 
13:05	66.1	66.1	66.1	35	37.6	1	5	248	0.00	29.976 
13:10	66.3	66.3	66.3	35	37.8	1	5	270	0.00	29.976 
13:15	66.9	66.9	66.9	34	37.6	0	2	270	0.00	29.972 
13:20	67.1	67.1	67.1	32	36.3	1	2	270	0.00	29.972 
13:25	67.1	67.1	67.1	32	36.3	1	4	270	0.00	29.972 
13:30	66.9	66.9	66.9	31	35.3	1	6	270	0.00	29.969 
13:35	66.4	66.4	66.4	32	35.6	2	9	270	0.00	29.969 
13:40	65.8	65.8	65.8	33	35.9	2	9	270	0.00	29.969 
13:45	65.0	65.0	65.0	33	35.2	5	10	270	0.00	29.982 
13:50	64.5	64.5	64.5	34	35.5	3	6	270	0.00	29.982 
13:55	64.3	64.3	64.3	35	36.1	3	7	292	0.00	29.982 
14:00	64.3	64.3	64.3	37	37.5	1	3	292	0.00	29.975 
14:05	64.3	64.3	64.3	36	36.8	1	3	292	0.00	29.975 
14:10	64.5	64.5	64.5	36	36.9	1	5	292	0.00	29.975 
14:15	64.7	64.7	64.7	35	36.4	2	4	292	0.00	29.964 
14:20	64.8	64.8	64.8	36	37.2	1	3	270	0.00	29.964 
14:25	65.0	65.0	65.0	36	37.4	1	5	270	0.00	29.964 
14:30	65.0	65.0	65.0	35	36.7	1	3	270	0.00	29.952 
14:35	65.2	65.2	65.2	35	36.9	1	5	270	0.00	29.952 
14:40	65.3	65.3	65.3	35	36.9	1	4	292	0.00	29.952 
14:45	65.6	65.6	65.6	34	36.5	1	5	292	0.00	29.942 
14:50	65.8	65.8	65.8	33	35.9	1	4	292	0.00	29.942 
14:55	65.5	65.5	65.5	34	36.4	1	5	292	0.00	29.942 
15:00	65.2	65.2	65.2	34	36.1	1	4	292	0.00	29.940 
15:05	65.0	65.0	65.0	35	36.7	2	4	292	0.00	29.940 
15:10	64.8	64.8	64.8	34	35.8	2	5	292	0.00	29.940 
15:15	64.5	64.5	64.5	35	36.2	2	6	270	0.00	29.931 
15:20	64.5	64.5	64.5	36	36.9	1	4	270	0.00	29.931 
15:25	64.3	64.3	64.3	35	36.1	1	3	270	0.00	29.931 
15:30	64.3	64.3	64.3	35	36.1	1	3	270	0.00	29.928 
15:35	64.2	64.2	64.2	35	36.0	1	4	270	0.00	29.928 
15:40	64.2	64.2	64.2	36	36.7	1	3	270	0.00	29.928 
15:45	64.0	64.0	64.0	37	37.2	0	2	270	0.00	29.925 
15:50	64.0	64.0	64.0	38	37.9	0	1	270	0.00	29.925 
15:55	63.9	63.9	63.9	38	37.8	1	2	270	0.00	29.925 
16:00	63.7	63.7	63.7	37	36.9	1	4	270	0.00	29.922 
16:05	63.5	63.5	63.5	39	38.1	1	3	270	0.00	29.922 
16:10	63.2	63.2	63.2	38	37.2	1	3	270	0.00	29.922 
16:15	63.1	63.1	63.1	38	37.1	1	3	315	0.00	29.922 
16:20	62.9	62.9	62.9	39	37.6	0	2	315	0.00	29.922 
16:25	62.9	62.9	62.9	39	37.6	0	2	315	0.00	29.922 
16:30	62.9	62.9	62.9	39	37.6	0	1	315	0.00	29.922 
16:35	63.1	63.1	63.1	40	38.4	0	1	315	0.00	29.922 
16:40	63.4	63.4	63.4	40	38.7	0	1	315	0.00	29.922 
16:45	63.5	63.5	63.5	40	38.7	0	1	315	0.00	29.922 
16:50	63.7	63.7	63.7	39	38.3	0	3	292	0.00	29.922 
16:55	63.7	63.7	63.7	41	39.6	0	2	315	0.00	29.922 
17:00	63.7	63.7	63.7	39	38.3	0	1	315	0.00	29.923 
17:05	63.7	63.7	63.7	39	38.3	0	1	315	0.00	29.923 
17:10	63.9	63.9	63.9	39	38.5	0	2	315	0.00	29.923 
17:15	64.3	64.3	64.3	39	38.8	0	1	315	0.00	29.923 
17:20	64.7	64.7	64.7	39	39.2	0	1	315	0.00	29.923 
17:25	64.8	64.8	64.8	37	37.9	0	1	315	0.00	29.923 
17:30	65.0	65.0	65.0	38	38.8	1	3	315	0.00	29.920 
17:35	65.0	65.0	65.0	38	38.8	0	1	315	0.00	29.920 
17:40	65.0	65.0	65.0	38	38.8	0	2	315	0.00	29.920 
17:45	65.0	65.0	65.0	36	37.4	0	2	315	0.00	29.918 
17:50	65.0	65.0	65.0	37	38.1	0	2	315	0.00	29.918 
17:55	64.8	64.8	64.8	36	37.2	0	1	315	0.00	29.918 
18:00	64.7	64.7	64.7	37	37.8	0	2	315	0.00	29.915 
18:05	64.5	64.5	64.5	37	37.6	0	1	315	0.00	29.915 
18:10	64.3	64.3	64.3	37	37.5	0	2	315	0.00	29.915 
18:15	64.0	64.0	64.0	38	37.9	0	1	315	0.00	29.915 
18:20	63.9	63.9	63.9	38	37.8	0	1	315	0.00	29.915 
18:25	63.7	63.7	63.7	40	38.9	0	0	---	0.00	29.915 
18:30	63.5	63.5	63.5	39	38.1	0	0	---	0.00	29.918 
18:35	63.2	63.2	63.2	42	39.7	0	0	---	0.00	29.918 
18:40	63.1	63.1	63.1	43	40.2	0	0	---	0.00	29.918 
18:45	62.7	62.7	62.7	43	39.9	0	0	---	0.00	29.911 
18:50	62.4	62.4	62.4	44	40.2	0	1	315	0.00	29.911 
18:55	61.8	61.8	61.8	46	40.8	0	1	338	0.00	29.911 
19:00	61.3	61.3	61.3	48	41.4	0	1	0	0.00	29.917 
19:05	60.7	60.7	60.7	49	41.4	0	1	0	0.00	29.917 
19:10	60.2	60.2	60.2	54	43.5	0	1	0	0.00	29.917 
19:15	59.6	59.6	59.6	58	44.8	0	3	68	0.00	29.923 
19:20	59.0	59.0	59.0	57	43.8	1	5	270	0.00	29.923 
19:25	58.7	58.7	58.7	59	44.4	0	1	270	0.00	29.923 
19:30	58.4	58.4	58.4	60	44.6	0	1	270	0.00	29.908 
19:35	58.1	58.1	58.1	60	44.3	0	1	270	0.00	29.908 
19:40	58.0	58.0	58.0	62	45.1	0	0	---	0.00	29.908 
19:45	57.8	57.8	57.8	62	44.9	0	1	270	0.00	29.914 
19:50	57.5	57.5	57.5	62	44.6	0	1	270	0.00	29.914 
19:55	57.3	57.3	57.3	63	44.8	0	0	---	0.00	29.914 
20:00	57.0	57.0	57.0	64	44.9	0	0	---	0.00	29.919 
20:05	56.6	56.6	56.6	64	44.6	0	0	---	0.00	29.919 
20:10	56.3	56.3	56.3	66	45.1	0	1	270	0.00	29.919 
20:15	56.0	56.0	56.0	68	45.6	0	0	---	0.00	29.923 
20:20	55.6	55.6	55.6	66	44.4	0	1	270	0.00	29.923 
20:25	55.4	55.4	55.4	65	43.8	0	1	270	0.00	29.923 
20:30	55.4	55.4	55.4	64	43.4	0	3	270	0.00	29.943 
20:35	55.9	55.9	55.9	61	42.6	0	1	270	0.00	29.943 
20:40	56.5	56.5	56.5	58	41.9	0	1	270	0.00	29.943 
20:45	56.7	56.7	56.7	57	41.6	0	1	270	0.00	29.943 
20:50	57.0	57.0	57.0	55	41.0	1	5	270	0.00	29.943 
20:55	57.6	57.6	57.6	53	40.6	1	6	292	0.00	29.943 
21:00	58.3	58.3	58.3	48	38.7	3	11	270	0.00	29.960 
21:05	58.7	58.7	58.7	45	37.4	3	10	270	0.00	29.960 
21:10	59.2	59.2	59.2	44	37.3	4	12	292	0.00	29.960 
21:15	59.2	59.2	59.2	46	38.4	4	10	315	0.00	29.958 
21:20	58.6	58.6	58.6	48	39.0	3	10	315	0.00	29.958 
21:25	58.0	58.0	58.0	50	39.5	1	5	315	0.00	29.958 
21:30	57.2	57.2	57.2	52	39.7	2	7	315	0.00	29.969 
21:35	56.6	56.6	56.6	53	39.7	1	6	292	0.00	29.969 
21:40	56.2	56.2	56.2	54	39.8	1	5	315	0.00	29.969 
21:45	55.9	55.9	55.9	54	39.5	0	1	315	0.00	29.981 
21:50	55.4	55.4	55.4	55	39.5	0	3	315	0.00	29.981 
21:55	55.1	55.1	55.1	56	39.7	0	2	315	0.00	29.981 
22:00	54.8	54.8	54.8	57	39.9	0	2	315	0.00	29.990 
22:05	54.4	54.4	54.4	57	39.5	0	1	315	0.00	29.990 
22:10	54.1	54.1	54.1	58	39.7	0	1	315	0.00	29.990 
22:15	53.8	53.8	53.8	58	39.4	0	1	315	0.00	29.994 
22:20	53.5	53.5	53.5	59	39.5	0	1	315	0.00	29.994 
22:25	53.3	53.3	53.3	59	39.3	0	1	315	0.00	29.994 
22:30	53.2	53.2	53.2	60	39.7	0	1	315	0.00	29.997 
22:35	52.9	52.9	52.9	61	39.8	0	0	---	0.00	29.997 
22:40	52.8	52.8	52.8	61	39.7	0	1	315	0.00	29.997 
22:45	52.5	52.5	52.5	62	39.9	0	1	315	0.00	30.004 
22:50	52.2	52.2	52.2	62	39.6	0	1	315	0.00	30.004 
22:55	52.0	52.0	52.0	63	39.8	0	1	315	0.00	30.004 
23:00	51.7	51.7	51.7	63	39.5	0	1	315	0.00	30.014 
23:05	51.7	51.7	51.7	63	39.5	0	1	315	0.00	30.014 
23:10	51.9	51.9	51.9	62	39.3	0	1	315	0.00	30.014 
23:15	51.7	51.7	51.7	63	39.5	0	1	315	0.00	30.023 
23:20	51.6	51.6	51.6	63	39.4	0	1	315	0.00	30.023 
23:25	51.3	51.3	51.3	63	39.1	0	1	315	0.00	30.023 
23:30	51.3	51.3	51.3	63	39.1	0	1	315	0.00	30.027 
23:35	51.1	51.1	51.1	63	38.9	0	1	315	0.00	30.027 
23:40	51.0	51.0	51.0	64	39.3	0	1	315	0.00	30.027 
23:45	50.8	50.8	50.8	63	38.7	0	1	315	0.00	30.031 
23:50	50.7	50.7	50.7	63	38.6	0	1	315	0.00	30.031 
23:55	50.7	50.7	50.7	63	38.6	0	1	315	0.00	30.031 

CoCoRaHS
IN-AL-39
A2 Web Hosting
Creative Commons License
GoDaddy
search engine by freefind advanced

loaded 2018-11-20 07:19:20 • last modified 2010-11-18 10:43:29
Privacy PolicyDisclaimer
• wx.awcolley.com is powered by PmWiki v.2002016 •
• all content (unless otherwise noted) © 2018 A W Colley